createdAt,value
2022-10-09T00:01:05.930Z,50.22
2022-10-09T00:03:33.381Z,50.16
2022-10-09T00:06:00.218Z,50.06
2022-10-09T00:08:26.957Z,50.13
2022-10-09T00:10:53.468Z,50.07
2022-10-09T00:13:20.233Z,49.99
2022-10-09T00:15:47.340Z,50.06
2022-10-09T00:18:17.058Z,50.00
2022-10-09T00:20:45.577Z,50.13
2022-10-09T00:23:17.439Z,50.11
2022-10-09T00:26:01.401Z,49.98
2022-10-09T00:28:30.803Z,50.18
2022-10-09T00:30:59.058Z,50.03
2022-10-09T00:33:25.547Z,50.18
2022-10-09T00:35:51.990Z,50.06
2022-10-09T00:38:18.480Z,50.02
2022-10-09T00:40:44.973Z,49.97
2022-10-09T00:43:38.208Z,50.07
2022-10-09T00:46:05.331Z,50.08
2022-10-09T00:48:33.034Z,50.00
2022-10-09T00:51:02.081Z,50.04
2022-10-09T00:53:30.699Z,50.13
2022-10-09T00:55:58.056Z,50.32
2022-10-09T00:58:25.854Z,50.01
2022-10-09T01:00:53.136Z,50.02
2022-10-09T01:03:19.585Z,50.02
2022-10-09T01:06:15.969Z,49.91
2022-10-09T01:08:55.549Z,50.07
2022-10-09T01:11:40.271Z,50.16
2022-10-09T01:14:26.055Z,49.88
2022-10-09T01:17:06.020Z,50.08
2022-10-09T01:19:40.961Z,50.12
2022-10-09T01:22:21.268Z,50.05
2022-10-09T01:25:09.416Z,49.94
2022-10-09T01:27:37.806Z,49.93
2022-10-09T01:30:11.444Z,50.01
2022-10-09T01:32:43.193Z,50.02
2022-10-09T01:35:12.686Z,49.62
2022-10-09T01:37:42.255Z,49.84
2022-10-09T01:40:10.901Z,50.03
2022-10-09T01:42:38.254Z,50.01
2022-10-09T01:45:05.068Z,50.16
2022-10-09T01:47:31.570Z,50.04
2022-10-09T01:50:03.269Z,50.15
2022-10-09T01:52:41.896Z,50.06
2022-10-09T01:55:14.363Z,49.94
2022-10-09T01:57:49.171Z,49.88
2022-10-09T02:00:16.307Z,49.91
2022-10-09T02:02:44.017Z,50.04
2022-10-09T02:05:15.255Z,49.90
2022-10-09T02:07:41.757Z,49.93
2022-10-09T02:10:09.345Z,50.13
2022-10-09T02:12:40.500Z,49.93
2022-10-09T02:15:08.748Z,50.17
2022-10-09T02:17:38.733Z,49.90
2022-10-09T02:20:15.034Z,50.00
2022-10-09T02:22:42.073Z,49.85
2022-10-09T02:25:08.916Z,50.00
2022-10-09T02:27:36.049Z,50.03
2022-10-09T02:30:05.701Z,49.97
2022-10-09T02:32:32.248Z,49.85
2022-10-09T02:34:58.732Z,49.97
2022-10-09T02:37:25.206Z,49.97
2022-10-09T02:39:51.673Z,49.89
2022-10-09T02:42:18.161Z,50.04
2022-10-09T02:44:44.641Z,49.90
2022-10-09T02:47:11.078Z,49.96
2022-10-09T02:49:37.541Z,49.77
2022-10-09T02:52:04.345Z,49.83
2022-10-09T02:54:30.927Z,49.86
2022-10-09T02:56:57.396Z,50.04
2022-10-09T02:59:23.833Z,49.95
2022-10-09T03:01:50.396Z,49.92
2022-10-09T03:04:16.951Z,49.93
2022-10-09T03:06:43.413Z,49.78
2022-10-09T03:09:10.116Z,49.84
2022-10-09T03:11:36.620Z,49.85
2022-10-09T03:14:03.092Z,50.02
2022-10-09T03:16:29.647Z,50.01
2022-10-09T03:18:56.256Z,49.88
2022-10-09T03:21:25.340Z,49.86
2022-10-09T03:23:53.293Z,50.05
2022-10-09T03:26:22.453Z,50.10
2022-10-09T03:28:50.680Z,50.03
2022-10-09T03:31:39.603Z,49.84
2022-10-09T03:34:05.457Z,50.11
2022-10-09T03:36:31.913Z,50.01
2022-10-09T03:38:58.407Z,49.98
2022-10-09T03:41:24.887Z,49.88
2022-10-09T03:43:51.348Z,49.94
2022-10-09T03:46:17.920Z,49.93
2022-10-09T03:48:44.409Z,49.90
2022-10-09T03:51:10.948Z,49.90
2022-10-09T03:53:37.429Z,49.83
2022-10-09T03:56:03.927Z,49.87
2022-10-09T03:58:30.501Z,49.94
2022-10-09T04:00:57.083Z,49.96
2022-10-09T04:03:24.142Z,50.02
2022-10-09T04:05:50.644Z,49.97
2022-10-09T04:08:17.120Z,49.90
2022-10-09T04:10:43.733Z,50.13
2022-10-09T04:13:10.249Z,49.86
2022-10-09T04:15:37.575Z,49.96
2022-10-09T04:18:05.048Z,50.16
2022-10-09T04:20:31.526Z,50.17
2022-10-09T04:22:57.997Z,50.08
2022-10-09T04:25:24.573Z,50.08
2022-10-09T04:27:51.016Z,50.11
2022-10-09T04:30:17.580Z,50.10
2022-10-09T04:32:44.040Z,50.21
2022-10-09T04:35:10.509Z,50.06
2022-10-09T04:37:37.013Z,50.03
2022-10-09T04:40:04.534Z,50.18
2022-10-09T04:42:31.226Z,50.11
2022-10-09T04:44:57.720Z,50.08
2022-10-09T04:47:24.301Z,50.03
2022-10-09T04:49:50.780Z,50.00
2022-10-09T04:52:17.267Z,49.99
2022-10-09T04:54:43.729Z,49.95
2022-10-09T04:57:10.276Z,49.92
2022-10-09T04:59:36.744Z,50.10
2022-10-09T05:02:03.719Z,50.04
2022-10-09T05:04:30.552Z,49.95
2022-10-09T05:06:56.988Z,49.92
2022-10-09T05:09:23.442Z,49.97
2022-10-09T05:11:49.923Z,49.96
2022-10-09T05:14:16.465Z,50.03
2022-10-09T05:17:08.394Z,49.96
2022-10-09T05:19:29.342Z,50.07
2022-10-09T05:21:55.813Z,50.09
2022-10-09T05:24:22.387Z,49.84
2022-10-09T05:26:48.825Z,50.04
2022-10-09T05:29:15.327Z,50.07
2022-10-09T05:31:48.388Z,49.96
2022-10-09T05:34:16.005Z,49.97
2022-10-09T05:36:42.445Z,49.84
2022-10-09T05:39:08.908Z,49.88
2022-10-09T05:41:35.401Z,49.77
2022-10-09T05:44:03.443Z,50.00
2022-10-09T05:46:30.401Z,49.83
2022-10-09T05:49:02.182Z,50.04
2022-10-09T05:51:31.326Z,49.93
2022-10-09T05:53:59.009Z,50.04
2022-10-09T05:56:28.948Z,49.90
2022-10-09T05:59:02.695Z,49.90
2022-10-09T06:01:33.101Z,50.04
2022-10-09T06:04:00.729Z,49.88
2022-10-09T06:06:30.732Z,50.02
2022-10-09T06:08:57.676Z,49.96
2022-10-09T06:11:32.176Z,49.95
2022-10-09T06:14:00.317Z,49.97
2022-10-09T06:16:30.973Z,49.86
2022-10-09T06:18:58.725Z,50.07
2022-10-09T06:21:26.477Z,49.90
2022-10-09T06:23:55.169Z,50.00
2022-10-09T06:26:22.625Z,50.02
2022-10-09T06:28:49.158Z,50.03
2022-10-09T06:31:22.441Z,50.31
2022-10-09T06:33:50.522Z,49.97
2022-10-09T06:36:24.421Z,49.88
2022-10-09T06:38:51.164Z,49.87
2022-10-09T06:41:26.040Z,49.94
2022-10-09T06:43:55.051Z,50.07
2022-10-09T06:46:24.815Z,49.96
2022-10-09T06:48:51.556Z,50.00
2022-10-09T06:51:20.295Z,49.92
2022-10-09T06:53:52.268Z,49.96
2022-10-09T06:56:21.160Z,49.90
2022-10-09T06:58:47.980Z,50.30
2022-10-09T07:01:15.982Z,49.97
2022-10-09T07:03:44.848Z,49.93
2022-10-09T07:06:16.897Z,49.91
2022-10-09T07:08:45.468Z,49.96
2022-10-09T07:11:17.380Z,50.04
2022-10-09T07:13:44.517Z,49.85
2022-10-09T07:16:11.667Z,49.96
2022-10-09T07:18:38.907Z,49.66
2022-10-09T07:21:08.245Z,49.79
2022-10-09T07:23:36.073Z,49.95
2022-10-09T07:26:09.741Z,49.71
2022-10-09T07:28:36.331Z,49.78
2022-10-09T07:31:04.120Z,49.86
2022-10-09T07:33:30.653Z,49.66
2022-10-09T07:35:58.784Z,49.79
2022-10-09T07:38:25.559Z,49.66
2022-10-09T07:40:53.097Z,49.70
2022-10-09T07:43:20.896Z,49.59
2022-10-09T07:45:47.485Z,49.48
2022-10-09T07:48:14.148Z,49.58
2022-10-09T07:50:40.603Z,49.60
2022-10-09T07:53:08.718Z,49.67
2022-10-09T07:55:35.952Z,49.60
2022-10-09T07:58:02.819Z,49.87
2022-10-09T08:00:29.362Z,49.51
2022-10-09T08:02:55.879Z,49.55
2022-10-09T08:05:22.401Z,49.59
2022-10-09T08:07:48.857Z,49.59
2022-10-09T08:10:15.358Z,49.83
2022-10-09T08:12:41.934Z,49.73
2022-10-09T08:15:08.978Z,49.86
2022-10-09T08:17:35.433Z,49.88
2022-10-09T08:20:01.893Z,50.10
2022-10-09T08:22:28.353Z,49.92
2022-10-09T08:24:54.825Z,49.94
2022-10-09T08:27:21.378Z,50.01
2022-10-09T08:29:47.849Z,49.91
2022-10-09T08:32:14.289Z,49.91
2022-10-09T08:34:40.748Z,49.80
2022-10-09T08:37:07.352Z,49.93
2022-10-09T08:39:33.793Z,50.14
2022-10-09T08:42:03.812Z,50.34
2022-10-09T08:44:41.024Z,50.44
2022-10-09T08:47:22.269Z,51.01
2022-10-09T08:50:13.127Z,48.77
2022-10-09T08:52:46.712Z,50.57
2022-10-09T08:55:24.697Z,51.05
2022-10-09T08:57:54.052Z,51.53
2022-10-09T09:00:23.598Z,52.08
2022-10-09T09:03:08.479Z,52.61
2022-10-09T09:05:48.598Z,52.88
2022-10-09T09:08:35.300Z,53.46
2022-10-09T09:11:45.820Z,56.38
2022-10-09T09:14:15.031Z,56.93
2022-10-09T09:16:48.305Z,56.51
2022-10-09T09:20:01.115Z,56.72
2022-10-09T09:22:28.201Z,56.39
2022-10-09T09:24:57.269Z,55.11
2022-10-09T09:27:31.485Z,54.38
2022-10-09T09:30:03.677Z,54.65
2022-10-09T09:32:31.712Z,53.99
2022-10-09T09:35:09.086Z,54.08
2022-10-09T09:37:37.627Z,53.37
2022-10-09T09:40:35.566Z,53.31
2022-10-09T09:42:56.710Z,53.21
2022-10-09T09:45:26.212Z,53.20
2022-10-09T09:48:11.396Z,53.60
2022-10-09T09:50:56.415Z,53.51
2022-10-09T09:53:29.711Z,53.21
2022-10-09T09:55:56.901Z,53.11
2022-10-09T09:58:33.691Z,52.95
2022-10-09T10:01:03.256Z,53.05
2022-10-09T10:03:31.019Z,52.92
2022-10-09T10:05:58.212Z,52.73
2022-10-09T10:08:34.884Z,52.51
2022-10-09T10:11:17.389Z,52.25
2022-10-09T10:13:49.370Z,51.96
2022-10-09T10:16:21.920Z,52.04
2022-10-09T10:18:48.777Z,51.79
2022-10-09T10:21:17.673Z,51.71
2022-10-09T10:24:05.264Z,51.64
2022-10-09T10:26:58.606Z,51.43
2022-10-09T10:29:32.313Z,50.95
2022-10-09T10:32:10.632Z,51.51
2022-10-09T10:34:43.050Z,54.08
2022-10-09T10:37:15.694Z,55.16
2022-10-09T10:40:03.451Z,54.76
2022-10-09T10:42:44.200Z,56.05
2022-10-09T10:45:19.276Z,56.13
2022-10-09T10:47:51.540Z,56.52
2022-10-09T10:50:20.040Z,57.34
2022-10-09T10:52:52.696Z,57.93
2022-10-09T10:55:50.328Z,57.34
2022-10-09T10:58:25.542Z,57.47
2022-10-09T11:01:02.335Z,57.85
2022-10-09T11:03:52.765Z,58.26
2022-10-09T11:06:25.957Z,58.16
2022-10-09T11:09:18.451Z,57.77
2022-10-09T11:12:43.257Z,57.96
2022-10-09T11:15:37.529Z,54.99
2022-10-09T11:18:30.032Z,54.67
2022-10-09T11:21:11.969Z,54.73
2022-10-09T11:23:58.798Z,55.00
2022-10-09T11:26:40.417Z,54.90
2022-10-09T11:29:15.180Z,55.14
2022-10-09T11:31:45.073Z,55.14
2022-10-09T11:34:24.846Z,54.77
2022-10-09T11:36:51.564Z,54.72
2022-10-09T11:39:23.749Z,54.58
2022-10-09T11:41:52.880Z,54.57
2022-10-09T11:44:31.555Z,54.36
2022-10-09T11:47:32.020Z,54.18
2022-10-09T11:50:16.907Z,54.01
2022-10-09T11:53:04.043Z,53.96
2022-10-09T11:55:33.043Z,53.47
2022-10-09T11:58:22.683Z,53.56
2022-10-09T12:00:53.882Z,53.62
2022-10-09T12:03:38.538Z,53.65
2022-10-09T12:06:16.757Z,53.60
2022-10-09T12:08:56.768Z,53.44
2022-10-09T12:11:24.341Z,53.43
2022-10-09T12:13:52.357Z,53.35
2022-10-09T12:16:37.376Z,53.34
2022-10-09T12:19:13.654Z,53.03
2022-10-09T12:21:48.628Z,53.19
2022-10-09T12:24:23.677Z,53.18
2022-10-09T12:26:53.000Z,53.23
2022-10-09T12:29:33.516Z,53.33
2022-10-09T12:32:06.507Z,53.12
2022-10-09T12:34:37.826Z,53.31
2022-10-09T12:37:10.110Z,53.11
2022-10-09T12:39:37.528Z,53.13
2022-10-09T12:42:04.216Z,53.04
2022-10-09T12:44:34.929Z,53.00
2022-10-09T12:47:15.126Z,52.90
2022-10-09T12:49:41.577Z,52.90
2022-10-09T12:52:16.416Z,52.82
2022-10-09T12:54:44.672Z,53.01
2022-10-09T12:57:16.485Z,52.85
2022-10-09T12:59:45.965Z,53.00
2022-10-09T13:02:17.235Z,52.93
2022-10-09T13:04:56.462Z,52.95
2022-10-09T13:07:26.402Z,52.87
2022-10-09T13:10:00.847Z,53.15
2022-10-09T13:12:29.574Z,53.04
2022-10-09T13:15:02.502Z,53.05
2022-10-09T13:17:41.216Z,54.08
2022-10-09T13:20:16.950Z,54.61
2022-10-09T13:23:05.201Z,54.15
2022-10-09T13:25:34.351Z,54.23
2022-10-09T13:28:02.160Z,55.37
2022-10-09T13:30:28.678Z,55.15
2022-10-09T13:32:55.263Z,55.20
2022-10-09T13:35:21.998Z,56.40
2022-10-09T13:37:49.148Z,55.71
2022-10-09T13:40:19.752Z,55.71
2022-10-09T13:42:54.161Z,57.35
2022-10-09T13:45:20.690Z,56.23
2022-10-09T13:47:47.493Z,57.03
2022-10-09T13:50:15.412Z,56.33
2022-10-09T13:52:42.140Z,56.15
2022-10-09T13:55:09.098Z,56.46
2022-10-09T13:57:35.568Z,56.49
2022-10-09T14:00:02.362Z,56.88
2022-10-09T14:02:28.802Z,60.62
2022-10-09T14:04:55.240Z,60.31
2022-10-09T14:07:21.711Z,58.39
2022-10-09T14:09:48.167Z,56.99
2022-10-09T14:12:14.636Z,56.78
2022-10-09T14:14:41.077Z,56.63
2022-10-09T14:17:07.566Z,56.40
2022-10-09T14:19:34.214Z,56.44
2022-10-09T14:22:00.692Z,56.47
2022-10-09T14:24:27.517Z,56.72
2022-10-09T14:26:53.965Z,56.89
2022-10-09T14:29:20.547Z,56.66
2022-10-09T14:31:50.155Z,56.75
2022-10-09T14:34:16.785Z,56.79
2022-10-09T14:36:43.313Z,56.74
2022-10-09T14:39:09.887Z,56.82
2022-10-09T14:41:37.898Z,57.01
2022-10-09T14:44:05.042Z,57.09
2022-10-09T14:46:33.977Z,57.01
2022-10-09T14:49:07.035Z,57.21
2022-10-09T14:51:36.984Z,57.63
2022-10-09T14:54:04.910Z,57.23
2022-10-09T14:56:31.854Z,57.37
2022-10-09T14:59:00.379Z,57.26
2022-10-09T15:01:28.049Z,57.22
2022-10-09T15:03:54.563Z,60.66
2022-10-09T15:06:24.233Z,60.50
2022-10-09T15:09:04.615Z,60.84
2022-10-09T15:11:33.547Z,60.36
2022-10-09T15:14:00.020Z,60.30
2022-10-09T15:16:26.800Z,60.23
2022-10-09T15:18:54.672Z,60.31
2022-10-09T15:21:30.365Z,60.52
2022-10-09T15:23:58.350Z,60.56
2022-10-09T15:26:26.504Z,60.43
2022-10-09T15:28:52.979Z,60.15
2022-10-09T15:31:33.925Z,60.34
2022-10-09T15:34:01.582Z,60.45
2022-10-09T15:36:29.845Z,59.60
2022-10-09T15:38:56.724Z,59.33
2022-10-09T15:41:29.314Z,59.37
2022-10-09T15:43:58.685Z,58.83
2022-10-09T15:46:26.129Z,58.54
2022-10-09T15:48:52.631Z,58.24
2022-10-09T15:51:19.964Z,58.22
2022-10-09T15:53:48.537Z,58.38
2022-10-09T15:56:17.956Z,57.97
2022-10-09T15:58:44.427Z,57.80
2022-10-09T16:01:16.227Z,57.88
2022-10-09T16:03:43.690Z,57.63
2022-10-09T16:06:12.500Z,57.52
2022-10-09T16:08:39.868Z,57.50
2022-10-09T16:13:41.790Z,57.32
2022-10-09T16:16:12.132Z,57.12
2022-10-09T16:18:38.704Z,57.23
2022-10-09T16:21:11.549Z,57.01
2022-10-09T16:23:38.203Z,56.99
2022-10-09T16:26:04.780Z,56.77
2022-10-09T16:28:32.588Z,56.87
2022-10-09T16:30:59.573Z,56.68
2022-10-09T16:33:26.097Z,56.86
2022-10-09T16:35:52.793Z,56.52
2022-10-09T16:38:19.326Z,56.39
2022-10-09T16:41:01.393Z,56.64
2022-10-09T16:43:28.667Z,56.41
2022-10-09T16:45:55.122Z,56.25
2022-10-09T16:48:21.556Z,56.25
2022-10-09T16:50:48.016Z,56.23
2022-10-09T16:53:14.481Z,56.04
2022-10-09T16:55:40.933Z,55.79
2022-10-09T16:58:07.428Z,55.97
2022-10-09T17:00:33.918Z,55.87
2022-10-09T17:03:00.428Z,55.80
2022-10-09T17:05:26.892Z,56.04
2022-10-09T17:07:54.403Z,55.63
2022-10-09T17:10:20.985Z,55.74
2022-10-09T17:12:47.447Z,55.57
2022-10-09T17:15:13.986Z,55.54
2022-10-09T17:17:40.959Z,55.41
2022-10-09T17:20:07.993Z,55.49
2022-10-09T17:22:34.481Z,55.42
2022-10-09T17:25:00.925Z,55.23
2022-10-09T17:27:27.364Z,55.06
2022-10-09T17:29:53.873Z,54.51
2022-10-09T17:32:20.346Z,54.19
2022-10-09T17:34:46.969Z,54.18
2022-10-09T17:37:13.531Z,54.13
2022-10-09T17:39:40.098Z,54.25
2022-10-09T17:42:06.770Z,54.31
2022-10-09T17:44:33.312Z,54.04
2022-10-09T17:47:00.871Z,53.94
2022-10-09T17:49:27.686Z,54.13
2022-10-09T17:51:54.563Z,53.85
2022-10-09T17:54:21.518Z,53.99
2022-10-09T17:56:48.100Z,53.67
2022-10-09T17:59:15.686Z,53.88
2022-10-09T18:01:42.677Z,53.93
2022-10-09T18:04:15.096Z,53.76
2022-10-09T18:06:41.542Z,53.80
2022-10-09T18:09:08.178Z,53.69
2022-10-09T18:11:34.733Z,53.58
2022-10-09T18:14:01.623Z,53.37
2022-10-09T18:16:36.363Z,53.45
2022-10-09T18:19:07.636Z,53.37
2022-10-09T18:21:35.139Z,53.41
2022-10-09T18:24:01.901Z,53.26
2022-10-09T18:26:28.389Z,53.15
2022-10-09T18:28:54.953Z,53.56
2022-10-09T18:31:23.632Z,53.23
2022-10-09T18:33:50.924Z,53.21
2022-10-09T18:36:21.091Z,53.10
2022-10-09T18:38:53.595Z,52.92
2022-10-09T18:41:21.549Z,52.74
2022-10-09T18:43:48.722Z,52.81
2022-10-09T18:46:17.813Z,52.75
2022-10-09T18:48:44.885Z,52.61
2022-10-09T18:51:18.278Z,52.80
2022-10-09T18:53:48.677Z,52.55
2022-10-09T18:56:18.545Z,52.61
2022-10-09T18:58:45.497Z,52.45
2022-10-09T19:01:12.273Z,52.39
2022-10-09T19:03:38.857Z,52.45
2022-10-09T19:06:05.698Z,52.48
2022-10-09T19:08:33.505Z,52.37
2022-10-09T19:11:00.105Z,52.42
2022-10-09T19:13:26.807Z,52.15
2022-10-09T19:15:55.313Z,52.29
2022-10-09T19:18:22.426Z,52.28
2022-10-09T19:20:49.384Z,52.11
2022-10-09T19:23:16.476Z,52.24
2022-10-09T19:25:51.736Z,52.14
2022-10-09T19:28:18.825Z,52.13
2022-10-09T19:30:45.673Z,52.15
2022-10-09T19:33:12.873Z,51.91
2022-10-09T19:35:53.504Z,52.13
2022-10-09T19:38:21.064Z,52.00
2022-10-09T19:40:47.897Z,52.12
2022-10-09T19:43:15.741Z,51.91
2022-10-09T19:45:42.681Z,52.02
2022-10-09T19:48:09.505Z,51.97
2022-10-09T19:50:46.309Z,51.74
2022-10-09T19:53:13.340Z,51.80
2022-10-09T19:55:39.907Z,51.69
2022-10-09T19:58:06.783Z,51.81
2022-10-09T20:00:33.326Z,51.89
2022-10-09T20:02:59.816Z,51.75
2022-10-09T20:05:26.481Z,51.93
2022-10-09T20:07:52.978Z,51.77
2022-10-09T20:10:19.420Z,51.82
2022-10-09T20:12:45.866Z,51.77
2022-10-09T20:15:12.361Z,51.77
2022-10-09T20:17:38.817Z,51.71
2022-10-09T20:20:06.096Z,51.82
2022-10-09T20:22:32.650Z,51.94
2022-10-09T20:24:59.226Z,51.65
2022-10-09T20:27:25.690Z,51.68
2022-10-09T20:29:52.923Z,51.57
2022-10-09T20:32:19.747Z,52.02
2022-10-09T20:34:46.239Z,52.02
2022-10-09T20:37:12.914Z,51.94
2022-10-09T20:39:39.384Z,52.15
2022-10-09T20:42:05.890Z,51.92
2022-10-09T20:44:32.533Z,51.81
2022-10-09T20:46:59.040Z,51.73
2022-10-09T20:49:25.573Z,51.76
2022-10-09T20:51:53.183Z,51.78
2022-10-09T20:54:21.303Z,51.67
2022-10-09T20:56:48.533Z,51.70
2022-10-09T20:59:15.877Z,51.67
2022-10-09T21:01:42.774Z,51.76
2022-10-09T21:04:11.119Z,51.89
2022-10-09T21:06:38.142Z,51.71
2022-10-09T21:09:06.103Z,51.62
2022-10-09T21:11:34.679Z,51.59
2022-10-09T21:14:03.071Z,51.60
2022-10-09T21:16:29.778Z,51.56
2022-10-09T21:18:58.715Z,51.60
2022-10-09T21:21:26.336Z,51.89
2022-10-09T21:23:54.994Z,51.53
2022-10-09T21:26:23.280Z,51.16
2022-10-09T21:28:52.437Z,51.48
2022-10-09T21:31:28.606Z,51.53
2022-10-09T21:33:56.209Z,51.38
2022-10-09T21:36:34.781Z,51.50
2022-10-09T21:39:01.476Z,51.53
2022-10-09T21:41:28.057Z,51.58
2022-10-09T21:43:54.608Z,51.37
2022-10-09T21:46:21.478Z,51.42
2022-10-09T21:48:47.948Z,51.46
2022-10-09T21:51:14.457Z,51.39
2022-10-09T21:53:41.027Z,51.42
2022-10-09T21:56:07.579Z,51.59
2022-10-09T21:58:34.041Z,51.40
2022-10-09T22:01:02.247Z,51.33
2022-10-09T22:03:31.648Z,51.34
2022-10-09T22:05:58.436Z,51.20
2022-10-09T22:08:25.684Z,51.36
2022-10-09T22:10:52.395Z,51.12
2022-10-09T22:13:21.119Z,51.45
2022-10-09T22:15:50.912Z,51.53
2022-10-09T22:18:17.915Z,51.48
2022-10-09T22:20:47.980Z,51.46
2022-10-09T22:23:14.783Z,51.78
2022-10-09T22:25:41.349Z,51.52
2022-10-09T22:28:07.955Z,51.39
2022-10-09T22:30:36.212Z,51.34
2022-10-09T22:33:02.814Z,51.10
2022-10-09T22:35:29.285Z,51.41
2022-10-09T22:37:57.309Z,51.34
2022-10-09T22:40:23.838Z,51.40
2022-10-09T22:42:50.562Z,51.31
2022-10-09T22:45:17.181Z,51.34
2022-10-09T22:47:45.998Z,51.43
2022-10-09T22:50:12.429Z,51.30
2022-10-09T22:52:38.953Z,51.31
2022-10-09T22:55:05.970Z,51.29
2022-10-09T22:57:32.420Z,51.43
2022-10-09T22:59:58.884Z,51.33
2022-10-09T23:02:25.346Z,51.26
2022-10-09T23:04:51.783Z,51.32
2022-10-09T23:07:18.245Z,51.30
2022-10-09T23:09:44.709Z,51.29
2022-10-09T23:12:11.163Z,51.22
2022-10-09T23:14:37.612Z,51.27
2022-10-09T23:17:04.086Z,51.23
2022-10-09T23:19:30.529Z,51.12
2022-10-09T23:21:57.091Z,51.21
2022-10-09T23:24:23.549Z,51.28
2022-10-09T23:26:51.249Z,51.28
2022-10-09T23:29:19.392Z,51.24
2022-10-09T23:31:46.313Z,51.11
2022-10-09T23:34:13.126Z,50.83
2022-10-09T23:36:39.583Z,51.19
2022-10-09T23:39:06.954Z,51.22
2022-10-09T23:41:33.711Z,51.27
2022-10-09T23:44:00.159Z,51.11
2022-10-09T23:46:29.549Z,51.16
2022-10-09T23:48:56.104Z,51.12
2022-10-09T23:51:25.153Z,51.18
2022-10-09T23:53:52.325Z,51.07
2022-10-09T23:56:31.083Z,51.05
2022-10-09T23:58:59.143Z,51.24
